Ilha Grande, Brazil
Current Conditions -  °F | °C
As of 8:00 AM on Thursday 27 Nov 2014 (Local Time) from SBSC Reporting Station
Broken Clouds Broken Clouds  
Wind Chill: 75°   Ceiling: 500
Heat Index: 75°   Visibility: 5mi
Dew Point: 73°   Wind: 5mph
Humidity: 94%   Direction: 220°SW
Pressure: 29.83"   Gusts: NA
Location:  23.15°S, 44.13°W
Report Text: SBSC 271000Z 22004KT 8000 BKN005 BKN040 24/23 Q1010
Loading
Personal Weather Stations






























Interactive Weather Map New forecast layout! Learn more

10-Day Weather Forecast

Advertisements
Track Severe Weather on mobile